Pelly Crossing, Canada
Current Conditions -  °F | °C
As of 5:00 PM on Sunday 21 Dec 2014 (Local Time) from CYMA Reporting Station
Light Snow Light Snow  
Wind Chill: 14°   Ceiling: 5500
Heat Index: 14°   Visibility: 20mi
Dew Point: 12°   Wind: 2mph
Humidity: 93%   Direction: NA
Pressure: 29.4"   Gusts: NA
Location:  62.83°N, 136.58°W
Report Text: CYMA 220100Z VRB02KT 20SM -SN OVC055 M10/M11 A2940 RMK SC8 SLP998
Loading
Personal Weather Stations






























Interactive Weather Map New forecast layout! Learn more

10-Day Weather Forecast

Advertisements
Track Severe Weather on mobile